createdAt,value
2022-10-01T00:00:07.825Z,587.32
2022-10-01T00:00:17.818Z,587.34
2022-10-01T00:00:27.823Z,587.37
2022-10-01T00:00:37.822Z,587.31
2022-10-01T00:00:47.822Z,587.32
2022-10-01T00:00:57.822Z,587.48
2022-10-01T00:01:07.860Z,587.45
2022-10-01T00:01:17.899Z,587.54
2022-10-01T00:01:27.892Z,587.76
2022-10-01T00:01:38.228Z,587.57
2022-10-01T00:01:47.936Z,587.68
2022-10-01T00:01:57.891Z,587.73
2022-10-01T00:02:07.832Z,587.77
2022-10-01T00:02:17.830Z,587.69
2022-10-01T00:02:27.877Z,587.74
2022-10-01T00:02:37.931Z,587.62
2022-10-01T00:02:47.858Z,587.83
2022-10-01T00:02:57.900Z,587.76
2022-10-01T00:03:07.937Z,587.79
2022-10-01T00:03:17.886Z,587.70
2022-10-01T00:03:27.837Z,587.69
2022-10-01T00:03:37.837Z,587.66
2022-10-01T00:03:47.837Z,587.55
2022-10-01T00:03:57.840Z,587.62
2022-10-01T00:04:07.843Z,587.59
2022-10-01T00:04:17.851Z,587.59
2022-10-01T00:04:27.844Z,587.86
2022-10-01T00:04:37.886Z,587.79
2022-10-01T00:04:47.843Z,587.82
2022-10-01T00:04:57.845Z,587.87
2022-10-01T00:05:07.848Z,587.73
2022-10-01T00:05:17.848Z,587.71
2022-10-01T00:05:27.851Z,587.72
2022-10-01T00:05:37.849Z,587.68
2022-10-01T00:05:47.851Z,587.68
2022-10-01T00:05:57.851Z,587.73
2022-10-01T00:06:07.852Z,587.56
2022-10-01T00:06:17.869Z,587.64
2022-10-01T00:06:27.856Z,587.54
2022-10-01T00:06:37.854Z,587.64
2022-10-01T00:06:47.854Z,587.75
2022-10-01T00:06:57.857Z,587.69
2022-10-01T00:07:07.858Z,587.74
2022-10-01T00:07:17.857Z,587.78
2022-10-01T00:07:27.863Z,587.68
2022-10-01T00:07:37.862Z,587.50
2022-10-01T00:07:47.862Z,587.53
2022-10-01T00:07:57.881Z,587.58
2022-10-01T00:08:07.862Z,587.44
2022-10-01T00:08:17.862Z,587.49
2022-10-01T00:08:27.863Z,587.70
2022-10-01T00:08:37.863Z,587.62
2022-10-01T00:08:47.866Z,587.67
2022-10-01T00:08:57.865Z,587.62
2022-10-01T00:09:07.867Z,587.61
2022-10-01T00:09:17.869Z,587.62
2022-10-01T00:09:27.869Z,587.60
2022-10-01T00:09:37.871Z,587.86
2022-10-01T00:09:47.874Z,587.85
2022-10-01T00:09:57.871Z,587.83
2022-10-01T00:10:07.873Z,587.80
2022-10-01T00:10:17.875Z,587.78
2022-10-01T00:10:27.876Z,587.86
2022-10-01T00:10:37.877Z,587.92
2022-10-01T00:10:47.879Z,587.90
2022-10-01T00:10:57.881Z,588.01
2022-10-01T00:11:07.878Z,587.91
2022-10-01T00:11:17.881Z,587.89
2022-10-01T00:11:27.889Z,587.93
2022-10-01T00:11:37.882Z,588.01
2022-10-01T00:11:47.882Z,588.01
2022-10-01T00:11:57.886Z,588.10
2022-10-01T00:12:07.884Z,588.04
2022-10-01T00:12:17.884Z,588.11
2022-10-01T00:12:27.888Z,588.19
2022-10-01T00:12:37.886Z,588.30
2022-10-01T00:12:47.887Z,588.21
2022-10-01T00:12:57.887Z,588.24
2022-10-01T00:13:07.890Z,588.31
2022-10-01T00:13:17.890Z,588.36
2022-10-01T00:13:27.890Z,588.37
2022-10-01T00:13:37.890Z,588.42
2022-10-01T00:13:47.897Z,588.49
2022-10-01T00:13:57.892Z,588.50
2022-10-01T00:14:07.894Z,588.62
2022-10-01T00:14:17.894Z,588.65
2022-10-01T00:14:27.907Z,588.54
2022-10-01T00:14:37.896Z,588.47
2022-10-01T00:14:47.898Z,588.67
2022-10-01T00:14:57.897Z,588.63
2022-10-01T00:15:09.777Z,588.75
2022-10-01T00:15:17.898Z,588.86
2022-10-01T00:15:27.899Z,589.03
2022-10-01T00:15:37.900Z,589.07
2022-10-01T00:15:47.902Z,589.14
2022-10-01T00:15:57.901Z,589.16
2022-10-01T00:16:07.925Z,589.20
2022-10-01T00:16:17.965Z,589.21
2022-10-01T00:16:27.960Z,589.28
2022-10-01T00:16:37.943Z,589.30
2022-10-01T00:16:48.038Z,589.36
2022-10-01T00:16:58.008Z,589.25
2022-10-01T00:17:07.909Z,589.38
2022-10-01T00:17:17.911Z,589.23
2022-10-01T00:17:27.912Z,589.08
2022-10-01T00:17:37.912Z,589.19
2022-10-01T00:17:47.913Z,589.02
2022-10-01T00:17:57.915Z,589.14
2022-10-01T00:18:07.915Z,589.08
2022-10-01T00:18:17.918Z,589.29
2022-10-01T00:18:27.917Z,589.29
2022-10-01T00:18:37.918Z,589.26
2022-10-01T00:18:47.920Z,589.26
2022-10-01T00:18:57.923Z,589.25
2022-10-01T00:19:07.922Z,589.34
2022-10-01T00:19:17.922Z,589.51
2022-10-01T00:19:27.923Z,589.51
2022-10-01T00:19:37.925Z,589.45
2022-10-01T00:19:47.925Z,589.49
2022-10-01T00:19:57.926Z,589.52
2022-10-01T00:20:14.147Z,589.48
2022-10-01T00:20:18.928Z,589.49
2022-10-01T00:20:27.937Z,589.59
2022-10-01T00:20:37.930Z,589.60
2022-10-01T00:20:47.930Z,589.59
2022-10-01T00:20:57.935Z,589.56
2022-10-01T00:21:07.933Z,589.65
2022-10-01T00:21:17.932Z,589.62
2022-10-01T00:21:27.938Z,589.70
2022-10-01T00:21:37.937Z,589.84
2022-10-01T00:21:47.935Z,589.97
2022-10-01T00:21:57.944Z,589.80
2022-10-01T00:22:07.944Z,589.85
2022-10-01T00:22:17.940Z,589.89
2022-10-01T00:22:27.960Z,589.89
2022-10-01T00:22:37.942Z,590.10
2022-10-01T00:22:47.942Z,590.18
2022-10-01T00:22:57.945Z,590.15
2022-10-01T00:23:07.945Z,590.06
2022-10-01T00:23:17.944Z,590.06
2022-10-01T00:23:27.947Z,590.02
2022-10-01T00:23:37.948Z,590.03
2022-10-01T00:23:47.947Z,590.29
2022-10-01T00:23:57.948Z,590.20
2022-10-01T00:24:07.949Z,590.17
2022-10-01T00:24:17.953Z,590.09
2022-10-01T00:24:27.956Z,590.02
2022-10-01T00:24:37.953Z,590.03
2022-10-01T00:24:47.955Z,590.12
2022-10-01T00:24:57.956Z,590.15
2022-10-01T00:25:07.955Z,590.30
2022-10-01T00:25:17.957Z,590.37
2022-10-01T00:25:27.959Z,590.38
2022-10-01T00:25:37.959Z,590.36
2022-10-01T00:25:47.961Z,590.31
2022-10-01T00:25:57.964Z,590.37
2022-10-01T00:26:07.964Z,590.32
2022-10-01T00:26:17.963Z,590.37
2022-10-01T00:26:27.970Z,590.29
2022-10-01T00:26:37.966Z,590.49
2022-10-01T00:26:47.968Z,590.53
2022-10-01T00:26:57.969Z,590.61
2022-10-01T00:27:07.969Z,590.71
2022-10-01T00:27:17.971Z,590.79
2022-10-01T00:27:27.974Z,590.76
2022-10-01T00:27:37.972Z,590.68
2022-10-01T00:27:48.032Z,590.84
2022-10-01T00:27:58.055Z,590.87
2022-10-01T00:28:08.036Z,590.89
2022-10-01T00:28:18.006Z,590.89
2022-10-01T00:28:28.032Z,590.92
2022-10-01T00:28:37.980Z,590.90
2022-10-01T00:28:47.978Z,590.95
2022-10-01T00:28:57.983Z,591.10
2022-10-01T00:29:07.983Z,591.09
2022-10-01T00:29:17.982Z,591.09
2022-10-01T00:29:27.983Z,591.05
2022-10-01T00:29:37.986Z,591.13
2022-10-01T00:29:47.986Z,591.17
2022-10-01T00:29:57.985Z,591.28
2022-10-01T00:30:07.988Z,591.26
2022-10-01T00:30:17.987Z,591.32
2022-10-01T00:30:27.989Z,591.42
2022-10-01T00:30:40.418Z,591.26
2022-10-01T00:30:48.002Z,591.46
2022-10-01T00:30:58.032Z,591.51
2022-10-01T00:31:08.039Z,591.48
2022-10-01T00:31:18.075Z,591.60
2022-10-01T00:31:28.105Z,591.60
2022-10-01T00:31:38.555Z,591.65
2022-10-01T00:31:48.079Z,591.62
2022-10-01T00:31:58.046Z,591.66
2022-10-01T00:32:08.000Z,591.63
2022-10-01T00:32:18.001Z,591.81
2022-10-01T00:32:28.003Z,591.85
2022-10-01T00:32:38.001Z,591.75
2022-10-01T00:32:47.983Z,591.66
2022-10-01T00:32:58.002Z,591.69
2022-10-01T00:33:08.003Z,591.71
2022-10-01T00:33:18.004Z,591.52
2022-10-01T00:33:28.004Z,591.59
2022-10-01T00:33:38.027Z,591.68
2022-10-01T00:33:48.006Z,591.77
2022-10-01T00:33:58.012Z,591.71
2022-10-01T00:34:08.007Z,591.51
2022-10-01T00:34:18.011Z,591.70
2022-10-01T00:34:28.011Z,591.84
2022-10-01T00:34:38.010Z,591.76
2022-10-01T00:34:48.011Z,591.71
2022-10-01T00:34:58.013Z,591.70
2022-10-01T00:35:08.013Z,591.67
2022-10-01T00:35:18.018Z,591.83
2022-10-01T00:35:28.014Z,591.75
2022-10-01T00:35:38.016Z,591.78
2022-10-01T00:35:48.018Z,591.77
2022-10-01T00:35:58.019Z,591.73
2022-10-01T00:36:08.022Z,591.99
2022-10-01T00:36:18.020Z,591.96
2022-10-01T00:36:28.021Z,591.88
2022-10-01T00:36:38.021Z,591.68
2022-10-01T00:36:48.023Z,591.71
2022-10-01T00:36:58.024Z,591.74
2022-10-01T00:37:08.026Z,591.72
2022-10-01T00:37:18.027Z,591.65
2022-10-01T00:37:28.046Z,591.63
2022-10-01T00:37:38.031Z,591.50
2022-10-01T00:37:48.031Z,591.74
2022-10-01T00:37:58.035Z,591.72
2022-10-01T00:38:08.034Z,591.63
2022-10-01T00:38:18.035Z,591.63
2022-10-01T00:38:28.034Z,591.55
2022-10-01T00:38:38.040Z,591.59
2022-10-01T00:38:48.040Z,591.54
2022-10-01T00:38:58.037Z,591.56
2022-10-01T00:39:08.039Z,591.59
2022-10-01T00:39:18.040Z,591.47
2022-10-01T00:39:28.044Z,591.58
2022-10-01T00:39:38.047Z,591.73
2022-10-01T00:39:48.042Z,591.63
2022-10-01T00:39:58.044Z,591.63
2022-10-01T00:40:08.044Z,591.71
2022-10-01T00:40:18.045Z,591.85
2022-10-01T00:40:28.047Z,591.90
2022-10-01T00:40:38.045Z,591.81
2022-10-01T00:40:48.048Z,591.81
2022-10-01T00:40:58.047Z,591.89
2022-10-01T00:41:08.047Z,591.91
2022-10-01T00:41:18.133Z,592.03
2022-10-01T00:41:28.050Z,592.10
2022-10-01T00:41:38.279Z,591.92
2022-10-01T00:41:48.054Z,591.98
2022-10-01T00:41:58.053Z,592.10
2022-10-01T00:42:08.052Z,592.17
2022-10-01T00:42:18.056Z,592.16
2022-10-01T00:42:28.060Z,592.08
2022-10-01T00:42:38.062Z,592.20
2022-10-01T00:42:48.057Z,592.16
2022-10-01T00:42:58.062Z,592.22
2022-10-01T00:43:08.060Z,592.38
2022-10-01T00:43:18.070Z,592.37
2022-10-01T00:43:28.060Z,592.47
2022-10-01T00:43:38.060Z,592.25
2022-10-01T00:43:48.063Z,592.41
2022-10-01T00:43:58.064Z,592.26
2022-10-01T00:44:08.064Z,592.28
2022-10-01T00:44:18.064Z,592.55
2022-10-01T00:44:28.065Z,592.48
2022-10-01T00:44:38.066Z,592.26
2022-10-01T00:44:48.050Z,592.37
2022-10-01T00:44:58.068Z,592.42
2022-10-01T00:45:08.067Z,592.53
2022-10-01T00:45:18.069Z,592.40
2022-10-01T00:45:28.092Z,592.45
2022-10-01T00:45:38.099Z,592.47
2022-10-01T00:45:48.144Z,592.46
2022-10-01T00:45:58.139Z,592.49
2022-10-01T00:46:08.106Z,592.42
2022-10-01T00:46:18.157Z,592.42
2022-10-01T00:46:28.076Z,592.60
2022-10-01T00:46:38.077Z,592.55
2022-10-01T00:46:48.079Z,592.68
2022-10-01T00:46:58.079Z,592.76
2022-10-01T00:47:08.080Z,592.62
2022-10-01T00:47:18.082Z,592.61
2022-10-01T00:47:28.105Z,592.63
2022-10-01T00:47:38.089Z,592.72
2022-10-01T00:47:48.067Z,592.72
2022-10-01T00:47:58.083Z,592.78
2022-10-01T00:48:08.084Z,592.76
2022-10-01T00:48:18.087Z,592.71
2022-10-01T00:48:28.091Z,592.83
2022-10-01T00:48:38.087Z,592.89
2022-10-01T00:48:48.099Z,593.12
2022-10-01T00:48:58.090Z,592.94
2022-10-01T00:49:08.092Z,592.72
2022-10-01T00:49:18.094Z,592.84
2022-10-01T00:49:28.093Z,593.09
2022-10-01T00:49:38.093Z,593.11
2022-10-01T00:49:48.094Z,593.04
2022-10-01T00:49:59.571Z,592.86
2022-10-01T00:50:08.103Z,592.83
2022-10-01T00:50:18.100Z,592.82
2022-10-01T00:50:28.098Z,592.75
2022-10-01T00:50:38.100Z,592.84
2022-10-01T00:50:48.103Z,592.71
2022-10-01T00:50:58.101Z,592.71
2022-10-01T00:51:08.102Z,592.84
2022-10-01T00:51:18.104Z,592.89
2022-10-01T00:51:28.104Z,592.78
2022-10-01T00:51:38.110Z,592.96
2022-10-01T00:51:48.104Z,593.11
2022-10-01T00:51:58.108Z,593.08
2022-10-01T00:52:08.105Z,592.95
2022-10-01T00:52:18.106Z,592.97
2022-10-01T00:52:28.109Z,593.03
2022-10-01T00:52:38.109Z,592.97
2022-10-01T00:52:48.109Z,593.00
2022-10-01T00:52:58.110Z,592.84
2022-10-01T00:53:08.112Z,593.01
2022-10-01T00:53:18.113Z,593.07
2022-10-01T00:53:28.113Z,593.10
2022-10-01T00:53:38.115Z,593.10
2022-10-01T00:53:48.099Z,592.97
2022-10-01T00:53:58.118Z,592.99
2022-10-01T00:54:08.117Z,592.89
2022-10-01T00:54:18.118Z,592.91
2022-10-01T00:54:28.120Z,592.92
2022-10-01T00:54:38.121Z,592.95
2022-10-01T00:54:48.121Z,593.04
2022-10-01T00:54:58.123Z,593.10
2022-10-01T00:55:08.125Z,593.24
2022-10-01T00:55:18.126Z,593.31
2022-10-01T00:55:28.125Z,593.42
2022-10-01T00:55:38.126Z,593.48
2022-10-01T00:55:48.126Z,593.39
2022-10-01T00:55:58.127Z,593.48
2022-10-01T00:56:08.128Z,593.48
2022-10-01T00:56:18.133Z,593.56
2022-10-01T00:56:28.145Z,593.67
2022-10-01T00:56:38.131Z,593.52
2022-10-01T00:56:48.133Z,593.55
2022-10-01T00:56:58.135Z,593.62
2022-10-01T00:57:08.137Z,593.66
2022-10-01T00:57:18.136Z,593.82
2022-10-01T00:57:28.139Z,593.97
2022-10-01T00:57:38.136Z,593.87
2022-10-01T00:57:48.138Z,593.61
2022-10-01T00:57:58.138Z,593.97
2022-10-01T00:58:08.139Z,593.84
2022-10-01T00:58:18.142Z,594.03
2022-10-01T00:58:28.141Z,594.01
2022-10-01T00:58:38.143Z,593.97
2022-10-01T00:58:48.127Z,593.82
2022-10-01T00:58:58.145Z,593.90
2022-10-01T00:59:08.148Z,593.90
2022-10-01T00:59:18.148Z,594.09
2022-10-01T00:59:28.148Z,594.08
2022-10-01T00:59:38.149Z,593.89
2022-10-01T00:59:48.150Z,593.86
2022-10-01T00:59:58.156Z,594.04
2022-10-01T01:00:08.150Z,594.02
2022-10-01T01:00:18.156Z,594.19
2022-10-01T01:00:28.168Z,594.12
2022-10-01T01:00:38.155Z,594.23
2022-10-01T01:00:48.155Z,594.13
2022-10-01T01:00:58.183Z,594.18
2022-10-01T01:01:08.185Z,594.21
2022-10-01T01:01:18.233Z,594.27
2022-10-01T01:01:28.224Z,593.89
2022-10-01T01:01:38.339Z,594.26
2022-10-01T01:01:48.242Z,594.45
2022-10-01T01:01:58.252Z,594.48
2022-10-01T01:02:08.245Z,594.39
2022-10-01T01:02:18.196Z,594.48
2022-10-01T01:02:28.232Z,594.44
2022-10-01T01:02:38.220Z,594.61
2022-10-01T01:02:48.198Z,594.45
2022-10-01T01:02:58.169Z,594.34
2022-10-01T01:03:08.168Z,594.57
2022-10-01T01:03:18.173Z,594.69
2022-10-01T01:03:28.172Z,594.64
2022-10-01T01:03:38.178Z,594.63
2022-10-01T01:03:48.174Z,594.52
2022-10-01T01:03:58.177Z,594.85
2022-10-01T01:04:08.176Z,594.62
2022-10-01T01:04:18.176Z,594.67
2022-10-01T01:04:28.189Z,594.65
2022-10-01T01:04:38.179Z,594.81
2022-10-01T01:04:48.186Z,594.69
2022-10-01T01:04:58.181Z,594.93
2022-10-01T01:05:08.182Z,594.96
2022-10-01T01:05:18.182Z,594.73
2022-10-01T01:05:28.182Z,594.84
2022-10-01T01:05:38.186Z,594.89
2022-10-01T01:05:48.187Z,594.75
2022-10-01T01:05:58.186Z,594.55
2022-10-01T01:06:08.191Z,594.53
2022-10-01T01:06:18.189Z,594.68
2022-10-01T01:06:28.170Z,594.65
2022-10-01T01:06:38.190Z,594.58
2022-10-01T01:06:48.193Z,594.64
2022-10-01T01:06:58.193Z,594.82
2022-10-01T01:07:08.192Z,594.87
2022-10-01T01:07:18.194Z,594.66
2022-10-01T01:07:28.220Z,594.75
2022-10-01T01:07:38.195Z,594.74
2022-10-01T01:07:48.195Z,594.65
2022-10-01T01:07:58.197Z,594.73
2022-10-01T01:08:08.196Z,594.86
2022-10-01T01:08:18.197Z,594.83
2022-10-01T01:08:28.199Z,594.75
2022-10-01T01:08:38.199Z,594.93
2022-10-01T01:08:48.203Z,594.98
2022-10-01T01:08:58.204Z,594.96
2022-10-01T01:09:08.185Z,594.87
2022-10-01T01:09:18.206Z,594.93
2022-10-01T01:09:28.289Z,594.93
2022-10-01T01:09:38.203Z,594.95
2022-10-01T01:09:48.207Z,594.96
2022-10-01T01:09:58.210Z,594.98
2022-10-01T01:10:08.193Z,594.96
2022-10-01T01:10:18.208Z,595.26
2022-10-01T01:10:28.212Z,595.29
2022-10-01T01:10:38.211Z,595.16
2022-10-01T01:10:48.211Z,595.28
2022-10-01T01:10:58.210Z,595.06
2022-10-01T01:11:08.213Z,594.88
2022-10-01T01:11:18.212Z,595.14
2022-10-01T01:11:28.214Z,594.97
2022-10-01T01:11:38.215Z,595.09
2022-10-01T01:11:48.215Z,595.33
2022-10-01T01:11:58.219Z,595.24
2022-10-01T01:12:08.217Z,595.32
2022-10-01T01:12:18.220Z,595.28
2022-10-01T01:12:28.221Z,595.10
2022-10-01T01:12:38.229Z,595.32
2022-10-01T01:12:48.222Z,595.41
2022-10-01T01:12:58.222Z,595.37
2022-10-01T01:13:08.221Z,595.27
2022-10-01T01:13:18.222Z,595.40
2022-10-01T01:13:28.224Z,595.28
2022-10-01T01:13:38.223Z,595.59
2022-10-01T01:13:48.222Z,595.49
2022-10-01T01:13:58.226Z,595.65
2022-10-01T01:14:08.224Z,595.63
2022-10-01T01:14:18.225Z,595.42
2022-10-01T01:14:28.227Z,595.42
2022-10-01T01:14:38.228Z,595.48
2022-10-01T01:14:48.228Z,595.59
2022-10-01T01:14:58.230Z,595.57
2022-10-01T01:15:08.231Z,595.44
2022-10-01T01:15:18.232Z,595.47
2022-10-01T01:15:28.236Z,595.51
2022-10-01T01:15:38.278Z,595.56
2022-10-01T01:15:48.299Z,595.61
2022-10-01T01:15:58.263Z,595.91
2022-10-01T01:16:08.335Z,595.78
2022-10-01T01:16:18.297Z,595.48
2022-10-01T01:16:28.291Z,595.62
2022-10-01T01:16:38.243Z,595.68
2022-10-01T01:16:48.238Z,595.71
2022-10-01T01:16:58.240Z,595.83
2022-10-01T01:17:08.242Z,595.82
2022-10-01T01:17:18.249Z,595.84
2022-10-01T01:17:28.241Z,596.00
2022-10-01T01:17:38.244Z,596.03
2022-10-01T01:17:48.244Z,595.96
2022-10-01T01:17:58.244Z,596.00
2022-10-01T01:18:08.245Z,595.96
2022-10-01T01:18:18.248Z,595.91
2022-10-01T01:18:28.246Z,595.95
2022-10-01T01:18:38.249Z,596.05
2022-10-01T01:18:48.236Z,596.00
2022-10-01T01:18:58.252Z,596.01
2022-10-01T01:19:08.252Z,596.14
2022-10-01T01:19:18.252Z,596.06
2022-10-01T01:19:28.253Z,596.17
2022-10-01T01:19:38.252Z,596.32
2022-10-01T01:19:48.254Z,596.34
2022-10-01T01:19:58.257Z,596.19
2022-10-01T01:20:08.255Z,595.96
2022-10-01T01:20:18.258Z,596.04
2022-10-01T01:20:28.259Z,596.14
2022-10-01T01:20:38.260Z,596.43
2022-10-01T01:20:48.262Z,596.30
2022-10-01T01:20:58.260Z,596.17
2022-10-01T01:21:08.262Z,596.18
2022-10-01T01:21:18.266Z,596.27
2022-10-01T01:21:28.266Z,596.23
2022-10-01T01:21:38.270Z,596.36
2022-10-01T01:21:48.268Z,596.44
2022-10-01T01:21:58.269Z,596.48
2022-10-01T01:22:08.272Z,596.47
2022-10-01T01:22:18.273Z,596.40
2022-10-01T01:22:28.273Z,596.51
2022-10-01T01:22:38.279Z,596.39
2022-10-01T01:22:48.274Z,596.43
2022-10-01T01:22:58.276Z,596.49
2022-10-01T01:23:08.278Z,596.58
2022-10-01T01:23:18.260Z,596.39
2022-10-01T01:23:28.280Z,596.53
2022-10-01T01:23:38.278Z,596.52
2022-10-01T01:23:48.263Z,596.39
2022-10-01T01:23:58.282Z,596.60
2022-10-01T01:24:08.289Z,596.71
2022-10-01T01:24:18.283Z,596.65
2022-10-01T01:24:28.399Z,596.60
2022-10-01T01:24:38.289Z,596.50
2022-10-01T01:24:48.287Z,596.57
2022-10-01T01:24:58.289Z,596.46
2022-10-01T01:25:08.289Z,596.63
2022-10-01T01:25:18.290Z,596.54
2022-10-01T01:25:28.293Z,596.67
2022-10-01T01:25:38.293Z,596.70
2022-10-01T01:25:48.277Z,596.52
2022-10-01T01:25:58.298Z,596.69
2022-10-01T01:26:08.295Z,596.64
2022-10-01T01:26:18.299Z,596.36
2022-10-01T01:26:28.298Z,596.61
2022-10-01T01:26:38.301Z,596.63
2022-10-01T01:26:48.300Z,596.52
2022-10-01T01:26:58.301Z,596.78
2022-10-01T01:27:08.301Z,596.59
2022-10-01T01:27:18.303Z,596.59
2022-10-01T01:27:28.304Z,596.62
2022-10-01T01:27:38.314Z,596.67
2022-10-01T01:27:48.345Z,596.60
2022-10-01T01:27:58.371Z,596.70
2022-10-01T01:28:08.395Z,596.59
2022-10-01T01:28:18.364Z,596.57
2022-10-01T01:28:28.375Z,596.60
2022-10-01T01:28:38.310Z,596.71
2022-10-01T01:28:48.312Z,596.63
2022-10-01T01:28:58.314Z,596.78
2022-10-01T01:29:08.314Z,596.70
2022-10-01T01:29:18.314Z,596.80
2022-10-01T01:29:28.317Z,596.83
2022-10-01T01:29:38.316Z,596.73
2022-10-01T01:29:48.320Z,597.01
2022-10-01T01:29:58.320Z,597.20
2022-10-01T01:30:08.322Z,597.06
2022-10-01T01:30:18.324Z,596.91
2022-10-01T01:30:28.322Z,596.88
2022-10-01T01:30:38.322Z,596.98
2022-10-01T01:30:48.358Z,597.08
2022-10-01T01:30:58.364Z,597.02
2022-10-01T01:31:08.377Z,597.11
2022-10-01T01:31:18.395Z,597.12
2022-10-01T01:31:28.384Z,597.22
2022-10-01T01:31:38.558Z,597.36
2022-10-01T01:31:48.331Z,597.17
2022-10-01T01:31:58.330Z,597.24
2022-10-01T01:32:12.636Z,597.11
2022-10-01T01:32:19.386Z,597.15
2022-10-01T01:32:28.341Z,597.21
2022-10-01T01:32:38.337Z,597.28
2022-10-01T01:32:48.337Z,597.21
2022-10-01T01:32:58.337Z,597.43
2022-10-01T01:33:08.339Z,597.52
2022-10-01T01:33:18.342Z,597.59
2022-10-01T01:33:28.340Z,597.44
2022-10-01T01:33:38.341Z,597.68
2022-10-01T01:33:48.339Z,597.39
2022-10-01T01:33:58.344Z,597.59
2022-10-01T01:34:08.342Z,597.61
2022-10-01T01:34:18.343Z,597.67
2022-10-01T01:34:28.348Z,597.71
2022-10-01T01:34:38.361Z,597.66
2022-10-01T01:34:48.347Z,597.54
2022-10-01T01:34:58.347Z,597.52
2022-10-01T01:35:08.349Z,597.78
2022-10-01T01:35:18.350Z,597.60
2022-10-01T01:35:28.350Z,597.69
2022-10-01T01:35:38.353Z,597.72
2022-10-01T01:35:48.352Z,597.81
2022-10-01T01:35:58.355Z,597.95
2022-10-01T01:36:08.355Z,598.03
2022-10-01T01:36:18.354Z,597.86
2022-10-01T01:36:28.356Z,597.70
2022-10-01T01:36:38.358Z,597.76
2022-10-01T01:36:48.358Z,597.68
2022-10-01T01:36:58.358Z,597.66
2022-10-01T01:37:08.358Z,597.87
2022-10-01T01:37:18.361Z,597.78
2022-10-01T01:37:28.362Z,597.79
2022-10-01T01:37:38.366Z,597.91
2022-10-01T01:37:48.364Z,597.91
2022-10-01T01:37:58.368Z,598.00
2022-10-01T01:38:08.369Z,597.95
2022-10-01T01:38:18.368Z,597.99
2022-10-01T01:38:28.369Z,598.05
2022-10-01T01:38:38.375Z,598.28
2022-10-01T01:38:48.373Z,598.30
2022-10-01T01:38:58.375Z,598.15
2022-10-01T01:39:08.376Z,598.15
2022-10-01T01:39:18.375Z,598.40
2022-10-01T01:39:28.376Z,598.23
2022-10-01T01:39:38.376Z,598.35
2022-10-01T01:39:48.377Z,598.31
2022-10-01T01:39:58.377Z,598.52
2022-10-01T01:40:08.377Z,598.42
2022-10-01T01:40:18.380Z,598.49
2022-10-01T01:40:28.380Z,598.53
2022-10-01T01:40:38.388Z,598.44
2022-10-01T01:40:48.381Z,598.52
2022-10-01T01:40:58.382Z,598.67
2022-10-01T01:41:08.383Z,598.66
2022-10-01T01:41:18.385Z,598.72
2022-10-01T01:41:28.385Z,598.64
2022-10-01T01:41:38.386Z,598.53
2022-10-01T01:41:48.370Z,598.64
2022-10-01T01:41:58.446Z,598.65
2022-10-01T01:42:08.389Z,598.69
2022-10-01T01:42:18.390Z,598.80
2022-10-01T01:42:28.393Z,598.77
2022-10-01T01:42:38.393Z,598.74
2022-10-01T01:42:48.395Z,598.69
2022-10-01T01:42:58.395Z,598.95
2022-10-01T01:43:08.396Z,598.81
2022-10-01T01:43:18.398Z,598.74
2022-10-01T01:43:28.397Z,598.72
2022-10-01T01:43:38.400Z,598.94
2022-10-01T01:43:48.382Z,598.94
2022-10-01T01:43:58.401Z,598.80
2022-10-01T01:44:08.402Z,598.83
2022-10-01T01:44:18.401Z,598.86
2022-10-01T01:44:28.401Z,598.96
2022-10-01T01:44:38.404Z,598.84
2022-10-01T01:44:48.409Z,599.01
2022-10-01T01:44:58.403Z,599.10
2022-10-01T01:45:08.413Z,599.18
2022-10-01T01:45:18.405Z,599.18
2022-10-01T01:45:28.452Z,599.17
2022-10-01T01:45:38.443Z,599.05
2022-10-01T01:45:48.435Z,599.06
2022-10-01T01:45:58.457Z,599.11
2022-10-01T01:46:08.452Z,599.20
2022-10-01T01:46:18.437Z,599.04
2022-10-01T01:46:28.413Z,598.94
2022-10-01T01:46:38.415Z,599.18
2022-10-01T01:46:48.416Z,599.25
2022-10-01T01:46:58.419Z,599.17
2022-10-01T01:47:08.421Z,599.32
2022-10-01T01:47:18.419Z,599.42
2022-10-01T01:47:28.422Z,599.55
2022-10-01T01:47:38.426Z,599.56
2022-10-01T01:47:48.420Z,599.56
2022-10-01T01:47:58.423Z,599.48
2022-10-01T01:48:08.426Z,599.50
2022-10-01T01:48:18.424Z,599.02
2022-10-01T01:48:28.427Z,599.47
2022-10-01T01:48:38.425Z,599.30
2022-10-01T01:48:48.427Z,599.45
2022-10-01T01:48:58.428Z,599.20
2022-10-01T01:49:08.410Z,599.50
2022-10-01T01:49:18.429Z,599.48
2022-10-01T01:49:28.430Z,599.42
2022-10-01T01:49:38.432Z,599.19
2022-10-01T01:49:48.431Z,599.27
2022-10-01T01:49:58.443Z,599.29
2022-10-01T01:50:08.432Z,599.27
2022-10-01T01:50:18.434Z,599.30
2022-10-01T01:50:28.432Z,599.33
2022-10-01T01:50:38.435Z,599.37
2022-10-01T01:50:48.436Z,599.50
2022-10-01T01:50:58.436Z,599.59
2022-10-01T01:51:08.435Z,599.64
2022-10-01T01:51:18.441Z,599.52
2022-10-01T01:51:28.438Z,599.51
2022-10-01T01:51:38.445Z,599.62
2022-10-01T01:51:48.439Z,599.76
2022-10-01T01:51:58.440Z,599.77
2022-10-01T01:52:08.423Z,599.64
2022-10-01T01:52:18.425Z,599.77
2022-10-01T01:52:28.443Z,599.81
2022-10-01T01:52:38.452Z,599.75
2022-10-01T01:52:48.445Z,599.81
2022-10-01T01:52:58.446Z,599.63
2022-10-01T01:53:08.448Z,599.72
2022-10-01T01:53:18.451Z,599.79
2022-10-01T01:53:28.448Z,599.78
2022-10-01T01:53:38.450Z,599.84
2022-10-01T01:53:48.449Z,599.77
2022-10-01T01:53:58.450Z,600.03
2022-10-01T01:54:08.451Z,600.09
2022-10-01T01:54:18.453Z,600.15
2022-10-01T01:54:28.453Z,600.06
2022-10-01T01:54:38.454Z,600.10
2022-10-01T01:54:48.458Z,600.18
2022-10-01T01:54:58.455Z,600.12
2022-10-01T01:55:08.468Z,600.33
2022-10-01T01:55:18.458Z,600.14
2022-10-01T01:55:28.457Z,600.07
2022-10-01T01:55:38.459Z,600.22
2022-10-01T01:55:48.460Z,600.23
2022-10-01T01:55:58.460Z,600.11
2022-10-01T01:56:08.444Z,600.18
2022-10-01T01:56:18.465Z,600.32
2022-10-01T01:56:28.462Z,600.54
2022-10-01T01:56:38.465Z,600.50
2022-10-01T01:56:48.467Z,600.66
2022-10-01T01:56:58.468Z,600.75
2022-10-01T01:57:08.475Z,600.70
2022-10-01T01:57:18.474Z,600.86
2022-10-01T01:57:28.471Z,601.01
2022-10-01T01:57:38.478Z,600.90
2022-10-01T01:57:48.475Z,601.10
2022-10-01T01:57:58.475Z,600.96
2022-10-01T01:58:08.478Z,601.01
2022-10-01T01:58:18.478Z,601.02
2022-10-01T01:58:28.481Z,600.86
2022-10-01T01:58:38.482Z,600.90
2022-10-01T01:58:48.481Z,600.72
2022-10-01T01:58:58.483Z,600.94
2022-10-01T01:59:08.483Z,600.81
2022-10-01T01:59:18.486Z,600.82
2022-10-01T01:59:28.483Z,601.05
2022-10-01T01:59:38.482Z,600.97
2022-10-01T01:59:48.488Z,601.25
2022-10-01T01:59:58.492Z,601.12
2022-10-01T02:00:08.487Z,601.05
2022-10-01T02:00:18.491Z,601.14
2022-10-01T02:00:28.491Z,600.87
2022-10-01T02:00:38.490Z,601.04
2022-10-01T02:00:48.491Z,601.01
2022-10-01T02:00:58.492Z,601.07
2022-10-01T02:01:08.549Z,601.18
2022-10-01T02:01:18.544Z,601.11
2022-10-01T02:01:28.593Z,601.20
2022-10-01T02:01:38.977Z,601.11
2022-10-01T02:01:48.579Z,601.14
2022-10-01T02:01:58.585Z,601.10
2022-10-01T02:02:08.631Z,600.89
2022-10-01T02:02:18.519Z,601.20
2022-10-01T02:02:28.607Z,601.22
2022-10-01T02:02:38.585Z,601.17
2022-10-01T02:02:48.575Z,601.06
2022-10-01T02:02:58.585Z,601.07
2022-10-01T02:03:08.509Z,600.92
2022-10-01T02:03:18.511Z,600.96
2022-10-01T02:03:28.511Z,601.35
2022-10-01T02:03:38.512Z,601.37
2022-10-01T02:03:48.514Z,601.35
2022-10-01T02:03:58.516Z,601.11
2022-10-01T02:04:08.516Z,601.41
2022-10-01T02:04:18.516Z,601.29
2022-10-01T02:04:28.519Z,601.23
2022-10-01T02:04:38.518Z,601.35
2022-10-01T02:04:48.519Z,601.28